createdAt,value
2024-02-18T00:01:44.949Z,9.82
2024-02-18T00:04:14.262Z,12.85
2024-02-18T00:06:44.340Z,11.52
2024-02-18T00:09:13.449Z,17.42
2024-02-18T00:11:42.576Z,12.55
2024-02-18T00:14:11.672Z,11.15
2024-02-18T00:16:40.812Z,14.48
2024-02-18T00:19:11.230Z,11.02
2024-02-18T00:21:40.387Z,14.57
2024-02-18T00:24:09.521Z,11.48
2024-02-18T00:26:49.119Z,11.73
2024-02-18T00:29:26.824Z,7.70
2024-02-18T00:31:56.400Z,10.88
2024-02-18T00:34:26.913Z,12.45
2024-02-18T00:36:55.971Z,8.95
2024-02-18T00:39:24.956Z,13.13
2024-02-18T00:41:54.078Z,13.15
2024-02-18T00:44:24.694Z,12.07
2024-02-18T00:47:01.347Z,12.45
2024-02-18T00:49:36.496Z,12.23
2024-02-18T00:52:06.367Z,12.52
2024-02-18T00:54:35.766Z,11.63
2024-02-18T00:57:05.120Z,10.30
2024-02-18T00:59:35.103Z,12.02
2024-02-18T01:02:04.312Z,9.93
2024-02-18T01:04:33.261Z,7.50
2024-02-18T01:07:04.013Z,9.13
2024-02-18T01:09:32.982Z,14.38
2024-02-18T01:12:03.650Z,10.10
2024-02-18T01:14:32.699Z,9.55
2024-02-18T01:17:03.650Z,9.68
2024-02-18T01:19:32.744Z,8.82
2024-02-18T01:22:02.432Z,12.73
2024-02-18T01:24:31.604Z,10.23
2024-02-18T01:27:00.666Z,8.18
2024-02-18T01:29:29.759Z,10.82
2024-02-18T01:31:58.745Z,12.75
2024-02-18T01:34:27.775Z,13.98
2024-02-18T01:36:57.042Z,16.50
2024-02-18T01:39:28.131Z,12.35
2024-02-18T01:41:57.439Z,13.43
2024-02-18T01:44:27.200Z,13.52
2024-02-18T01:46:56.589Z,12.77
2024-02-18T01:49:25.865Z,11.27
2024-02-18T01:51:55.693Z,12.90
2024-02-18T01:54:27.162Z,14.50
2024-02-18T01:56:57.643Z,16.88
2024-02-18T01:59:26.753Z,14.18
2024-02-18T02:01:55.796Z,13.57
2024-02-18T02:04:25.313Z,13.30
2024-02-18T02:06:55.411Z,13.82
2024-02-18T02:09:24.592Z,13.38
2024-02-18T02:11:53.844Z,17.83
2024-02-18T02:14:24.293Z,14.75
2024-02-18T02:16:53.440Z,16.73
2024-02-18T02:19:24.331Z,15.05
2024-02-18T02:21:53.426Z,14.93
2024-02-18T02:24:22.716Z,15.00
2024-02-18T02:26:55.610Z,16.40
2024-02-18T02:29:26.335Z,16.40
2024-02-18T02:31:58.523Z,17.77
2024-02-18T02:34:29.862Z,14.93
2024-02-18T02:36:59.426Z,13.30
2024-02-18T02:39:28.492Z,14.45
2024-02-18T02:41:57.834Z,12.63
2024-02-18T02:44:28.370Z,17.05
2024-02-18T02:46:57.355Z,12.45
2024-02-18T02:49:26.562Z,14.48
2024-02-18T02:51:55.605Z,12.85
2024-02-18T02:54:24.612Z,14.27
2024-02-18T02:56:53.926Z,15.88
2024-02-18T02:59:22.869Z,12.85
2024-02-18T03:01:53.587Z,13.40
2024-02-18T03:04:22.708Z,13.48
2024-02-18T03:06:52.027Z,7.45
2024-02-18T03:09:21.107Z,15.35
2024-02-18T03:11:50.291Z,7.90
2024-02-18T03:14:19.381Z,5.28
2024-02-18T03:16:48.366Z,8.20
2024-02-18T03:19:19.380Z,6.40
2024-02-18T03:21:48.586Z,7.80
2024-02-18T03:24:17.657Z,6.68
2024-02-18T03:26:46.701Z,7.00
2024-02-18T03:29:15.707Z,5.43
2024-02-18T03:31:44.881Z,5.50
2024-02-18T03:34:13.943Z,4.70
2024-02-18T03:36:45.217Z,13.60
2024-02-18T03:39:14.162Z,5.45
2024-02-18T03:41:43.200Z,5.22
2024-02-18T03:44:12.091Z,6.43
2024-02-18T03:46:41.097Z,6.18
2024-02-18T03:49:10.226Z,4.82
2024-02-18T03:51:39.198Z,10.85
2024-02-18T03:54:09.668Z,11.35
2024-02-18T03:56:38.648Z,6.47
2024-02-18T03:59:09.803Z,5.95
2024-02-18T04:01:39.349Z,4.75
2024-02-18T04:04:08.651Z,7.00
2024-02-18T04:06:37.744Z,6.63
2024-02-18T04:09:06.874Z,7.22
2024-02-18T04:11:37.498Z,5.53
2024-02-18T04:14:06.898Z,13.48
2024-02-18T04:16:35.939Z,3.17
2024-02-18T04:19:05.226Z,14.75
2024-02-18T04:21:34.432Z,17.33
2024-02-18T04:24:04.326Z,6.15
2024-02-18T04:26:33.581Z,28.40
2024-02-18T04:29:03.951Z,13.57
2024-02-18T04:31:32.884Z,10.98
2024-02-18T04:34:01.847Z,25.05
2024-02-18T04:36:30.821Z,7.22
2024-02-18T04:38:59.736Z,4.80
2024-02-18T04:41:28.646Z,8.90
2024-02-18T04:43:57.733Z,11.05
2024-02-18T04:46:28.121Z,6.55
2024-02-18T04:48:57.683Z,12.93
2024-02-18T04:51:27.267Z,9.23
2024-02-18T04:53:56.681Z,8.05
2024-02-18T04:56:25.572Z,14.77
2024-02-18T04:58:54.463Z,8.02
2024-02-18T05:01:23.586Z,9.13
2024-02-18T05:03:54.106Z,7.60
2024-02-18T05:06:23.138Z,8.75
2024-02-18T05:08:52.163Z,9.60
2024-02-18T05:11:21.195Z,7.15
2024-02-18T05:13:51.336Z,8.50
2024-02-18T05:16:20.353Z,11.43
2024-02-18T05:18:50.318Z,8.80
2024-02-18T05:21:20.996Z,4.82
2024-02-18T05:23:51.598Z,11.38
2024-02-18T05:26:20.641Z,6.18
2024-02-18T05:28:49.585Z,3.45
2024-02-18T05:31:24.273Z,13.27
2024-02-18T05:33:54.649Z,9.68
2024-02-18T05:36:25.554Z,10.57
2024-02-18T05:38:54.668Z,10.98
2024-02-18T05:41:23.620Z,10.40
2024-02-18T05:43:52.660Z,8.23
2024-02-18T05:46:21.583Z,7.60
2024-02-18T05:48:50.655Z,9.07
2024-02-18T05:51:19.760Z,9.30
2024-02-18T05:53:50.228Z,10.52
2024-02-18T05:56:19.303Z,12.40
2024-02-18T05:58:48.434Z,21.95
2024-02-18T06:01:18.062Z,22.17
2024-02-18T06:03:47.346Z,13.60
2024-02-18T06:06:16.913Z,10.98
2024-02-18T06:08:46.098Z,10.75
2024-02-18T06:11:20.304Z,10.98
2024-02-18T06:13:49.836Z,14.98
2024-02-18T06:16:19.320Z,12.25
2024-02-18T06:18:48.480Z,10.10
2024-02-18T06:21:24.208Z,13.95
2024-02-18T06:23:57.320Z,12.23
2024-02-18T06:26:28.682Z,12.10
2024-02-18T06:28:57.856Z,10.68
2024-02-18T06:31:26.963Z,10.25
2024-02-18T06:33:56.187Z,7.53
2024-02-18T06:36:26.426Z,8.10
2024-02-18T06:38:55.541Z,7.20
2024-02-18T06:41:24.519Z,6.43
2024-02-18T06:43:55.228Z,6.53
2024-02-18T06:46:30.169Z,5.70
2024-02-18T06:48:59.208Z,5.88
2024-02-18T06:51:28.268Z,5.03
2024-02-18T06:53:57.336Z,3.72
2024-02-18T06:56:26.246Z,4.88
2024-02-18T06:59:01.552Z,3.40
2024-02-18T07:01:36.707Z,5.35
2024-02-18T07:04:06.083Z,3.78
2024-02-18T07:06:35.319Z,4.57
2024-02-18T07:09:04.928Z,3.35
2024-02-18T07:11:34.412Z,3.47
2024-02-18T07:14:04.844Z,9.27
2024-02-18T07:16:34.363Z,5.35
2024-02-18T07:19:03.572Z,5.57
2024-02-18T07:21:33.628Z,3.90
2024-02-18T07:24:02.760Z,3.42
2024-02-18T07:26:31.767Z,5.18
2024-02-18T07:29:01.564Z,3.88
2024-02-18T07:31:32.828Z,3.03
2024-02-18T07:34:02.241Z,3.35
2024-02-18T07:36:31.469Z,3.97
2024-02-18T07:39:00.429Z,4.18
2024-02-18T07:41:29.442Z,4.25
2024-02-18T07:43:58.468Z,3.63
2024-02-18T07:46:27.722Z,3.38
2024-02-18T07:48:58.167Z,4.60
2024-02-18T07:51:29.212Z,3.42
2024-02-18T07:53:58.252Z,3.70
2024-02-18T07:56:27.809Z,3.95
2024-02-18T07:58:56.813Z,3.17
2024-02-18T08:01:25.995Z,4.50
2024-02-18T08:03:55.220Z,4.88
2024-02-18T08:06:27.243Z,3.67
2024-02-18T08:08:56.370Z,4.93
2024-02-18T08:11:25.379Z,3.58
2024-02-18T08:13:55.025Z,3.13
2024-02-18T08:16:28.291Z,2.92
2024-02-18T08:18:57.569Z,3.15
2024-02-18T08:21:28.862Z,3.25
2024-02-18T08:23:57.936Z,2.80
2024-02-18T08:26:28.636Z,4.88
2024-02-18T08:28:58.837Z,4.40
2024-02-18T08:31:27.747Z,2.45
2024-02-18T08:33:58.253Z,4.13
2024-02-18T08:36:28.744Z,4.95
2024-02-18T08:38:57.972Z,4.38
2024-02-18T08:41:27.632Z,3.60
2024-02-18T08:43:56.678Z,3.92
2024-02-18T08:46:25.788Z,2.60
2024-02-18T08:48:56.232Z,2.83
2024-02-18T08:51:25.279Z,2.83
2024-02-18T08:53:55.693Z,2.90
2024-02-18T08:56:24.621Z,3.33
2024-02-18T08:58:53.751Z,4.72
2024-02-18T09:01:22.911Z,3.05
2024-02-18T09:03:52.078Z,4.20
2024-02-18T09:06:21.233Z,2.55
2024-02-18T09:08:50.197Z,2.63
2024-02-18T09:11:20.525Z,4.32
2024-02-18T09:13:49.601Z,3.00
2024-02-18T09:16:18.644Z,3.42
2024-02-18T09:18:48.100Z,3.70
2024-02-18T09:21:17.148Z,2.70
2024-02-18T09:23:46.203Z,3.40
2024-02-18T09:26:15.186Z,4.53
2024-02-18T09:28:45.613Z,3.33
2024-02-18T09:31:15.570Z,4.32
2024-02-18T09:33:44.881Z,3.97
2024-02-18T09:36:13.925Z,3.05
2024-02-18T09:38:42.906Z,3.65
2024-02-18T09:41:18.801Z,3.58
2024-02-18T09:43:51.105Z,3.38
2024-02-18T09:46:22.346Z,4.47
2024-02-18T09:48:51.730Z,4.05
2024-02-18T09:51:21.882Z,3.20
2024-02-18T09:53:53.172Z,4.22
2024-02-18T09:56:22.073Z,2.53
2024-02-18T09:58:52.415Z,3.22
2024-02-18T10:01:23.381Z,3.42
2024-02-18T10:03:52.883Z,2.35
2024-02-18T10:06:22.448Z,2.75
2024-02-18T10:08:56.460Z,2.70
2024-02-18T10:11:25.770Z,3.03
2024-02-18T10:13:59.433Z,2.80
2024-02-18T10:16:28.478Z,3.90
2024-02-18T10:18:57.661Z,5.13
2024-02-18T10:21:27.740Z,3.95
2024-02-18T10:23:56.673Z,3.13
2024-02-18T10:26:25.754Z,2.97
2024-02-18T10:28:55.262Z,2.53
2024-02-18T10:31:25.757Z,3.13
2024-02-18T10:33:54.852Z,3.10
2024-02-18T10:36:27.575Z,2.00
2024-02-18T10:39:02.008Z,3.00
2024-02-18T10:41:35.221Z,4.10
2024-02-18T10:44:11.756Z,5.45
2024-02-18T10:46:43.924Z,3.58
2024-02-18T10:49:20.108Z,4.57
2024-02-18T10:51:52.658Z,3.47
2024-02-18T10:54:29.879Z,3.53
2024-02-18T10:57:01.648Z,3.47
2024-02-18T10:59:38.203Z,4.93
2024-02-18T11:02:15.804Z,5.07
2024-02-18T11:04:46.751Z,4.90
2024-02-18T11:07:17.592Z,3.90
2024-02-18T11:09:48.041Z,6.75
2024-02-18T11:12:19.029Z,3.80
2024-02-18T11:14:49.849Z,3.55
2024-02-18T11:17:20.856Z,3.72
2024-02-18T11:19:50.766Z,5.28
2024-02-18T11:22:20.761Z,2.35
2024-02-18T11:24:52.349Z,4.00
2024-02-18T11:27:22.081Z,4.05
2024-02-18T11:29:53.017Z,4.25
2024-02-18T11:32:23.572Z,3.17
2024-02-18T11:34:52.779Z,4.30
2024-02-18T11:37:32.389Z,3.35
2024-02-18T11:40:10.550Z,3.00
2024-02-18T11:42:42.918Z,3.90
2024-02-18T11:45:13.698Z,3.85
2024-02-18T11:47:48.437Z,4.10
2024-02-18T11:50:19.232Z,3.92
2024-02-18T11:52:49.755Z,3.20
2024-02-18T11:55:19.834Z,1.83
2024-02-18T11:57:49.429Z,1.80
2024-02-18T12:00:20.678Z,2.55
2024-02-18T12:02:52.725Z,3.22
2024-02-18T12:05:24.086Z,5.15
2024-02-18T12:07:55.456Z,4.20
2024-02-18T12:10:24.872Z,3.42
2024-02-18T12:12:54.024Z,3.25
2024-02-18T12:15:24.544Z,3.58
2024-02-18T12:17:55.751Z,5.70
2024-02-18T12:20:25.655Z,4.15
2024-02-18T12:22:57.606Z,2.65
2024-02-18T12:25:26.664Z,4.63
2024-02-18T12:27:55.687Z,4.63
2024-02-18T12:30:26.392Z,5.30
2024-02-18T12:33:00.713Z,4.82
2024-02-18T12:35:30.469Z,5.10
2024-02-18T12:38:01.756Z,4.90
2024-02-18T12:40:31.659Z,4.70
2024-02-18T12:43:26.222Z,5.10
2024-02-18T12:45:55.111Z,2.85
2024-02-18T12:48:31.270Z,5.45
2024-02-18T12:51:12.241Z,5.25
2024-02-18T12:53:42.511Z,5.07
2024-02-18T12:56:13.299Z,7.90
2024-02-18T12:58:43.437Z,5.10
2024-02-18T13:01:12.838Z,6.07
2024-02-18T13:03:47.482Z,3.92
2024-02-18T13:06:18.660Z,6.00
2024-02-18T13:08:47.696Z,4.03
2024-02-18T13:11:18.109Z,5.28
2024-02-18T13:13:47.734Z,4.07
2024-02-18T13:16:16.831Z,1.85
2024-02-18T13:18:47.425Z,2.95
2024-02-18T13:21:17.547Z,4.82
2024-02-18T13:23:46.555Z,1.17
2024-02-18T13:26:15.666Z,2.58
2024-02-18T13:28:44.785Z,2.35
2024-02-18T13:31:16.165Z,1.80
2024-02-18T13:33:45.283Z,2.88
2024-02-18T13:36:18.251Z,2.00
2024-02-18T13:38:48.611Z,3.05
2024-02-18T13:41:17.496Z,2.38
2024-02-18T13:43:46.530Z,2.50
2024-02-18T13:46:15.767Z,2.47
2024-02-18T13:48:45.015Z,2.55
2024-02-18T13:51:15.625Z,2.08
2024-02-18T13:53:45.620Z,2.25
2024-02-18T13:56:15.671Z,2.28
2024-02-18T13:58:44.674Z,1.90
2024-02-18T14:01:13.894Z,4.15
2024-02-18T14:03:45.787Z,2.85
2024-02-18T14:06:16.311Z,4.40
2024-02-18T14:08:45.378Z,5.07
2024-02-18T14:11:14.378Z,6.15
2024-02-18T14:13:43.325Z,8.13
2024-02-18T14:16:12.235Z,6.78
2024-02-18T14:18:41.282Z,5.40
2024-02-18T14:21:10.297Z,2.78
2024-02-18T14:23:40.622Z,3.97
2024-02-18T14:26:09.650Z,3.40
2024-02-18T14:28:38.581Z,4.15
2024-02-18T14:31:07.664Z,2.53
2024-02-18T14:33:36.991Z,4.25
2024-02-18T14:36:07.310Z,3.10
2024-02-18T14:38:36.263Z,2.50
2024-02-18T14:41:07.052Z,3.20
2024-02-18T14:43:36.061Z,7.18
2024-02-18T14:46:05.663Z,5.60
2024-02-18T14:48:34.790Z,3.67
2024-02-18T14:51:04.611Z,4.63
2024-02-18T14:53:33.613Z,3.35
2024-02-18T14:56:02.835Z,3.85
2024-02-18T14:58:33.213Z,4.70
2024-02-18T15:01:02.328Z,4.82
2024-02-18T15:03:31.432Z,2.95
2024-02-18T15:05:59.808Z,6.72
2024-02-18T15:08:29.225Z,6.43
2024-02-18T15:10:58.269Z,5.38
2024-02-18T15:13:27.781Z,4.03
2024-02-18T15:15:58.315Z,5.10
2024-02-18T15:18:27.436Z,7.32
2024-02-18T15:20:57.107Z,11.30
2024-02-18T15:23:26.222Z,6.38
2024-02-18T15:25:55.195Z,4.63
2024-02-18T15:28:24.085Z,6.35
2024-02-18T15:30:53.159Z,7.65
2024-02-18T15:33:23.637Z,7.65
2024-02-18T15:35:53.053Z,6.13
2024-02-18T15:38:22.229Z,5.95
2024-02-18T15:40:51.534Z,9.95
2024-02-18T15:43:20.573Z,10.35
2024-02-18T15:45:49.626Z,6.75
2024-02-18T15:48:19.213Z,5.38
2024-02-18T15:50:49.732Z,3.75
2024-02-18T15:53:18.761Z,4.15
2024-02-18T15:55:54.054Z,5.20
2024-02-18T15:58:30.940Z,5.78
2024-02-18T16:01:01.870Z,6.00
2024-02-18T16:03:31.700Z,6.32
2024-02-18T16:06:02.116Z,5.43
2024-02-18T16:08:38.412Z,5.40
2024-02-18T16:11:09.356Z,6.18
2024-02-18T16:13:41.735Z,7.28
2024-02-18T16:16:11.223Z,5.38
2024-02-18T16:18:42.532Z,4.72
2024-02-18T16:21:13.529Z,4.57
2024-02-18T16:23:48.002Z,3.88
2024-02-18T16:26:22.613Z,4.82
2024-02-18T16:28:51.618Z,7.18
2024-02-18T16:31:21.130Z,7.28
2024-02-18T16:33:50.448Z,5.90
2024-02-18T16:36:21.113Z,4.57
2024-02-18T16:38:50.492Z,6.25
2024-02-18T16:41:19.549Z,6.47
2024-02-18T16:43:48.515Z,6.45
2024-02-18T16:46:17.490Z,6.35
2024-02-18T16:48:46.580Z,7.03
2024-02-18T16:51:25.186Z,6.05
2024-02-18T16:53:54.199Z,8.13
2024-02-18T16:56:23.055Z,9.77
2024-02-18T16:58:51.962Z,10.52
2024-02-18T17:01:21.660Z,7.55
2024-02-18T17:03:51.186Z,4.85
2024-02-18T17:06:20.666Z,4.88
2024-02-18T17:08:51.139Z,8.55
2024-02-18T17:11:21.233Z,11.32
2024-02-18T17:13:50.383Z,9.80
2024-02-18T17:16:19.341Z,7.68
2024-02-18T17:18:49.931Z,8.55
2024-02-18T17:21:19.717Z,6.13
2024-02-18T17:23:51.324Z,7.25
2024-02-18T17:26:20.400Z,11.15
2024-02-18T17:28:49.414Z,13.05
2024-02-18T17:31:18.510Z,10.00
2024-02-18T17:33:47.964Z,12.02
2024-02-18T17:36:17.127Z,11.00
2024-02-18T17:38:46.190Z,8.85
2024-02-18T17:41:16.556Z,17.85
2024-02-18T17:43:45.600Z,21.42
2024-02-18T17:46:18.325Z,16.25
2024-02-18T17:48:47.506Z,15.30
2024-02-18T17:51:16.658Z,14.05
2024-02-18T17:53:45.632Z,8.43
2024-02-18T17:56:16.191Z,8.50
2024-02-18T17:58:45.187Z,7.07
2024-02-18T18:01:14.228Z,7.50
2024-02-18T18:03:43.420Z,10.52
2024-02-18T18:06:12.627Z,10.48
2024-02-18T18:08:41.797Z,12.32
2024-02-18T18:11:11.302Z,8.98
2024-02-18T18:13:41.704Z,5.97
2024-02-18T18:16:10.847Z,6.10
2024-02-18T18:18:40.151Z,7.55
2024-02-18T18:21:10.959Z,7.07
2024-02-18T18:23:40.155Z,7.47
2024-02-18T18:26:09.289Z,4.18
2024-02-18T18:28:38.230Z,6.18
2024-02-18T18:31:08.540Z,6.45
2024-02-18T18:33:37.689Z,8.23
2024-02-18T18:36:08.898Z,6.40
2024-02-18T18:38:37.994Z,7.18
2024-02-18T18:41:07.260Z,9.55
2024-02-18T18:43:36.208Z,4.82
2024-02-18T18:46:05.394Z,6.50
2024-02-18T18:48:35.996Z,6.63
2024-02-18T18:51:05.539Z,6.78
2024-02-18T18:53:35.660Z,7.15
2024-02-18T18:56:04.642Z,5.10
2024-02-18T18:58:34.499Z,4.93
2024-02-18T19:03:33.443Z,4.15
2024-02-18T19:06:03.830Z,8.13
2024-02-18T19:08:32.832Z,10.35
2024-02-18T19:11:02.665Z,8.73
2024-02-18T19:13:42.297Z,6.35
2024-02-18T19:16:18.264Z,5.82
2024-02-18T19:21:19.793Z,6.28
2024-02-18T19:23:48.809Z,9.95
2024-02-18T19:26:17.798Z,8.60
2024-02-18T19:28:47.204Z,19.52
2024-02-18T19:31:18.392Z,18.50
2024-02-18T19:33:48.106Z,13.80
2024-02-18T19:36:17.317Z,8.80
2024-02-18T19:38:48.270Z,7.28
2024-02-18T19:41:17.615Z,4.90
2024-02-18T19:43:46.493Z,5.88
2024-02-18T19:46:16.062Z,6.85
2024-02-18T19:48:45.201Z,7.00
2024-02-18T19:51:14.332Z,5.68
2024-02-18T19:53:43.636Z,4.45
2024-02-18T19:56:14.094Z,4.40
2024-02-18T19:58:43.000Z,5.50
2024-02-18T20:01:13.524Z,6.10
2024-02-18T20:03:42.623Z,7.00
2024-02-18T20:06:11.711Z,9.05
2024-02-18T20:08:41.676Z,10.13
2024-02-18T20:11:10.739Z,5.50
2024-02-18T20:13:41.441Z,9.23
2024-02-18T20:16:10.858Z,9.23
2024-02-18T20:18:40.042Z,6.22
2024-02-18T20:21:09.083Z,8.35
2024-02-18T20:23:38.821Z,6.28
2024-02-18T20:26:17.770Z,6.15
2024-02-18T20:28:48.567Z,4.07
2024-02-18T20:31:19.179Z,5.43
2024-02-18T20:33:49.328Z,5.35
2024-02-18T20:36:18.766Z,6.75
2024-02-18T20:38:47.958Z,5.13
2024-02-18T20:41:16.843Z,4.10
2024-02-18T20:43:47.219Z,4.40
2024-02-18T20:46:19.759Z,4.47
2024-02-18T20:48:49.477Z,5.53
2024-02-18T20:51:18.959Z,3.88
2024-02-18T20:53:48.066Z,5.30
2024-02-18T20:56:17.138Z,8.13
2024-02-18T20:58:47.581Z,5.72
2024-02-18T21:01:16.736Z,8.13
2024-02-18T21:03:45.860Z,6.53
2024-02-18T21:06:16.477Z,6.32
2024-02-18T21:08:45.592Z,6.35
2024-02-18T21:11:14.544Z,7.38
2024-02-18T21:13:43.567Z,7.13
2024-02-18T21:16:13.982Z,7.95
2024-02-18T21:18:43.119Z,7.13
2024-02-18T21:21:12.055Z,6.45
2024-02-18T21:23:40.923Z,6.95
2024-02-18T21:26:10.039Z,9.82
2024-02-18T21:28:42.652Z,8.48
2024-02-18T21:31:15.091Z,8.70
2024-02-18T21:33:44.144Z,6.97
2024-02-18T21:36:16.377Z,7.15
2024-02-18T21:38:45.533Z,7.78
2024-02-18T21:41:14.543Z,12.15
2024-02-18T21:43:43.591Z,8.40
2024-02-18T21:46:12.983Z,9.05
2024-02-18T21:48:43.918Z,11.73
2024-02-18T21:51:14.198Z,7.70
2024-02-18T21:53:45.278Z,8.18
2024-02-18T21:56:14.794Z,9.05
2024-02-18T21:58:43.931Z,10.55
2024-02-18T22:01:14.059Z,10.85
2024-02-18T22:03:44.771Z,11.23
2024-02-18T22:06:13.772Z,7.22
2024-02-18T22:08:42.879Z,7.75
2024-02-18T22:11:11.946Z,8.20
2024-02-18T22:13:40.895Z,6.93
2024-02-18T22:16:10.130Z,6.82
2024-02-18T22:18:40.283Z,8.85
2024-02-18T22:21:10.729Z,8.30
2024-02-18T22:23:39.622Z,10.55
2024-02-18T22:26:08.885Z,10.52
2024-02-18T22:28:37.908Z,10.07
2024-02-18T22:31:06.999Z,7.32
2024-02-18T22:33:36.508Z,11.32
2024-02-18T22:36:06.130Z,11.40
2024-02-18T22:38:36.532Z,10.20
2024-02-18T22:41:05.656Z,8.13
2024-02-18T22:43:34.587Z,8.63
2024-02-18T22:46:03.662Z,12.15
2024-02-18T22:48:33.032Z,7.55
2024-02-18T22:51:02.220Z,10.75
2024-02-18T22:53:31.212Z,7.43
2024-02-18T22:56:01.769Z,6.95
2024-02-18T22:58:30.836Z,7.63
2024-02-18T23:00:59.900Z,11.40
2024-02-18T23:03:28.978Z,9.82
2024-02-18T23:05:58.057Z,10.80
2024-02-18T23:08:27.099Z,7.65
2024-02-18T23:10:56.582Z,9.15
2024-02-18T23:13:27.129Z,9.38
2024-02-18T23:15:56.174Z,9.73
2024-02-18T23:18:25.333Z,9.65
2024-02-18T23:20:54.598Z,9.48
2024-02-18T23:23:23.504Z,11.35
2024-02-18T23:25:52.345Z,9.10
2024-02-18T23:28:21.522Z,9.07
2024-02-18T23:30:52.030Z,8.77
2024-02-18T23:33:21.356Z,9.57
2024-02-18T23:35:50.440Z,11.50
2024-02-18T23:38:20.346Z,14.38
2024-02-18T23:40:49.369Z,13.02
2024-02-18T23:43:22.740Z,11.32
2024-02-18T23:45:53.175Z,13.77
2024-02-18T23:48:22.220Z,12.35
2024-02-18T23:50:51.444Z,11.23
2024-02-18T23:53:20.400Z,11.07
2024-02-18T23:55:49.320Z,9.73
2024-02-18T23:58:18.332Z,10.95
